sensor_id;sensor_type;location;lat;lon;timestamp;pressure;altitude;pressure_sealevel;temperature;humidity
9335;BME280;4706;41.844;26.082;2022-09-20T00:02:16;100595.13;;;19.94;41.67
9335;BME280;4706;41.844;26.082;2022-09-20T00:04:42;100605.13;;;19.95;41.40
9335;BME280;4706;41.844;26.082;2022-09-20T00:07:07;100599.00;;;19.89;40.97
9335;BME280;4706;41.844;26.082;2022-09-20T00:09:33;100609.16;;;19.98;40.78
9335;BME280;4706;41.844;26.082;2022-09-20T00:11:58;100605.19;;;19.99;40.68
9335;BME280;4706;41.844;26.082;2022-09-20T00:14:24;100617.19;;;19.99;40.57
9335;BME280;4706;41.844;26.082;2022-09-20T00:16:49;100620.84;;;20.03;40.34
9335;BME280;4706;41.844;26.082;2022-09-20T00:19:19;100624.53;;;20.07;40.52
9335;BME280;4706;41.844;26.082;2022-09-20T00:21:44;100624.81;;;20.02;40.64
9335;BME280;4706;41.844;26.082;2022-09-20T00:24:10;100622.38;;;20.01;40.59
9335;BME280;4706;41.844;26.082;2022-09-20T00:26:36;100632.91;;;20.07;40.82
9335;BME280;4706;41.844;26.082;2022-09-20T00:29:03;100626.00;;;20.01;40.71
9335;BME280;4706;41.844;26.082;2022-09-20T00:31:29;100628.81;;;20.01;40.25
9335;BME280;4706;41.844;26.082;2022-09-20T00:33:56;100621.31;;;20.05;40.57
9335;BME280;4706;41.844;26.082;2022-09-20T00:36:40;100629.84;;;20.12;40.27
9335;BME280;4706;41.844;26.082;2022-09-20T00:39:06;100630.13;;;20.07;40.81
9335;BME280;4706;41.844;26.082;2022-09-20T00:41:32;100616.75;;;19.97;40.81
9335;BME280;4706;41.844;26.082;2022-09-20T00:43:58;100633.63;;;20.04;40.83
9335;BME280;4706;41.844;26.082;2022-09-20T00:48:58;100641.03;;;19.97;40.92
9335;BME280;4706;41.844;26.082;2022-09-20T00:51:28;100651.06;;;19.98;41.41
9335;BME280;4706;41.844;26.082;2022-09-20T00:53:57;100648.91;;;19.91;41.52
9335;BME280;4706;41.844;26.082;2022-09-20T00:56:29;100643.66;;;19.89;41.25
9335;BME280;4706;41.844;26.082;2022-09-20T00:59:24;100645.13;;;19.83;41.73
9335;BME280;4706;41.844;26.082;2022-09-20T01:01:54;100635.56;;;19.84;41.76
9335;BME280;4706;41.844;26.082;2022-09-20T01:04:24;100633.22;;;19.71;42.09
9335;BME280;4706;41.844;26.082;2022-09-20T01:06:53;100637.09;;;19.66;42.15
9335;BME280;4706;41.844;26.082;2022-09-20T01:09:21;100636.56;;;19.60;42.07
9335;BME280;4706;41.844;26.082;2022-09-20T01:11:48;100647.16;;;19.55;42.42
9335;BME280;4706;41.844;26.082;2022-09-20T01:14:15;100636.28;;;19.50;42.53
9335;BME280;4706;41.844;26.082;2022-09-20T01:16:46;100627.53;;;19.51;42.69
9335;BME280;4706;41.844;26.082;2022-09-20T01:19:43;100628.19;;;19.45;42.66
9335;BME280;4706;41.844;26.082;2022-09-20T01:25:13;100625.22;;;19.37;42.89
9335;BME280;4706;41.844;26.082;2022-09-20T01:27:48;100626.84;;;19.38;43.32
9335;BME280;4706;41.844;26.082;2022-09-20T01:30:15;100619.63;;;19.37;42.96
9335;BME280;4706;41.844;26.082;2022-09-20T01:32:44;100620.34;;;19.34;43.08
9335;BME280;4706;41.844;26.082;2022-09-20T01:35:13;100613.78;;;19.27;43.36
9335;BME280;4706;41.844;26.082;2022-09-20T01:40:30;100621.16;;;19.35;43.45
9335;BME280;4706;41.844;26.082;2022-09-20T01:45:30;100603.84;;;19.13;43.46
9335;BME280;4706;41.844;26.082;2022-09-20T01:48:25;100609.81;;;19.12;43.35
9335;BME280;4706;41.844;26.082;2022-09-20T01:51:13;100615.47;;;19.15;43.55
9335;BME280;4706;41.844;26.082;2022-09-20T01:53:53;100616.91;;;19.09;43.67
9335;BME280;4706;41.844;26.082;2022-09-20T01:56:59;100619.16;;;19.04;43.78
9335;BME280;4706;41.844;26.082;2022-09-20T01:59:45;100619.34;;;19.11;43.67
9335;BME280;4706;41.844;26.082;2022-09-20T02:21:50;100624.75;;;18.91;44.40
9335;BME280;4706;41.844;26.082;2022-09-20T02:27:33;100626.44;;;18.80;44.42
9335;BME280;4706;41.844;26.082;2022-09-20T02:30:08;100621.38;;;18.70;44.44
9335;BME280;4706;41.844;26.082;2022-09-20T02:38:43;100620.97;;;18.56;45.26
9335;BME280;4706;41.844;26.082;2022-09-20T02:41:27;100626.75;;;18.63;44.87
9335;BME280;4706;41.844;26.082;2022-09-20T02:55:10;100633.22;;;18.67;45.04
9335;BME280;4706;41.844;26.082;2022-09-20T03:03:58;100635.94;;;18.51;45.49
9335;BME280;4706;41.844;26.082;2022-09-20T03:33:00;100655.97;;;18.29;46.14
9335;BME280;4706;41.844;26.082;2022-09-20T03:41:23;100653.41;;;18.24;45.83
9335;BME280;4706;41.844;26.082;2022-09-20T03:46:34;100654.22;;;18.24;46.20
9335;BME280;4706;41.844;26.082;2022-09-20T03:49:42;100659.69;;;18.08;46.47
9335;BME280;4706;41.844;26.082;2022-09-20T03:58:11;100660.88;;;17.95;46.97
9335;BME280;4706;41.844;26.082;2022-09-20T04:11:45;100689.03;;;17.93;47.37
9335;BME280;4706;41.844;26.082;2022-09-20T04:14:22;100686.72;;;17.83;47.28
9335;BME280;4706;41.844;26.082;2022-09-20T04:19:47;100704.78;;;17.89;47.41
9335;BME280;4706;41.844;26.082;2022-09-20T04:22:18;100694.59;;;17.81;47.56
9335;BME280;4706;41.844;26.082;2022-09-20T04:24:55;100699.22;;;17.89;47.54
9335;BME280;4706;41.844;26.082;2022-09-20T04:32:41;100707.56;;;17.77;47.71
9335;BME280;4706;41.844;26.082;2022-09-20T04:38:24;100716.56;;;17.50;48.18
9335;BME280;4706;41.844;26.082;2022-09-20T05:00:15;100734.97;;;17.87;48.38
9335;BME280;4706;41.844;26.082;2022-09-20T05:11:32;100731.25;;;18.32;48.08
9335;BME280;4706;41.844;26.082;2022-09-20T05:27:51;100736.78;;;19.09;46.60
9335;BME280;4706;41.844;26.082;2022-09-20T05:55:44;100743.91;;;19.51;45.75
9335;BME280;4706;41.844;26.082;2022-09-20T05:58:22;100747.34;;;19.60;46.21
9335;BME280;4706;41.844;26.082;2022-09-20T06:01:22;100747.81;;;19.62;45.59
9335;BME280;4706;41.844;26.082;2022-09-20T06:09:43;100735.31;;;20.35;44.69
9335;BME280;4706;41.844;26.082;2022-09-20T06:14:57;100746.28;;;20.79;43.77
9335;BME280;4706;41.844;26.082;2022-09-20T06:20:17;100751.91;;;20.98;42.99
9335;BME280;4706;41.844;26.082;2022-09-20T06:22:53;100745.56;;;21.01;43.06
9335;BME280;4706;41.844;26.082;2022-09-20T06:27:59;100761.72;;;21.08;42.42
9335;BME280;4706;41.844;26.082;2022-09-20T06:30:32;100745.50;;;21.17;43.07
9335;BME280;4706;41.844;26.082;2022-09-20T06:35:38;100726.97;;;21.48;41.80
9335;BME280;4706;41.844;26.082;2022-09-20T06:41:14;100738.47;;;21.89;40.73
9335;BME280;4706;41.844;26.082;2022-09-20T06:44:00;100744.53;;;21.91;40.12
9335;BME280;4706;41.844;26.082;2022-09-20T06:46:35;100746.88;;;22.12;39.57
9335;BME280;4706;41.844;26.082;2022-09-20T06:49:01;100741.69;;;22.37;39.30
9335;BME280;4706;41.844;26.082;2022-09-20T06:51:32;100749.88;;;22.49;38.29
9335;BME280;4706;41.844;26.082;2022-09-20T06:53:58;100740.63;;;22.75;37.87
9335;BME280;4706;41.844;26.082;2022-09-20T06:56:25;100745.09;;;23.06;37.47
9335;BME280;4706;41.844;26.082;2022-09-20T06:58:53;100751.84;;;23.35;36.27
9335;BME280;4706;41.844;26.082;2022-09-20T07:01:19;100747.66;;;23.56;35.58
9335;BME280;4706;41.844;26.082;2022-09-20T07:03:44;100766.13;;;23.94;35.64
9335;BME280;4706;41.844;26.082;2022-09-20T07:06:10;100765.13;;;24.16;35.08
9335;BME280;4706;41.844;26.082;2022-09-20T07:08:36;100767.72;;;24.39;34.96
9335;BME280;4706;41.844;26.082;2022-09-20T07:11:07;100774.72;;;24.63;33.78
9335;BME280;4706;41.844;26.082;2022-09-20T07:13:35;100774.72;;;24.60;33.81
9335;BME280;4706;41.844;26.082;2022-09-20T07:16:06;100777.19;;;24.72;33.50
9335;BME280;4706;41.844;26.082;2022-09-20T07:18:33;100776.81;;;24.77;33.44
9335;BME280;4706;41.844;26.082;2022-09-20T07:20:59;100781.31;;;24.92;33.50
9335;BME280;4706;41.844;26.082;2022-09-20T07:23:26;100773.81;;;25.14;32.94
9335;BME280;4706;41.844;26.082;2022-09-20T07:25:52;100765.06;;;25.37;33.08
9335;BME280;4706;41.844;26.082;2022-09-20T07:28:18;100776.81;;;25.72;32.30
9335;BME280;4706;41.844;26.082;2022-09-20T07:30:46;100773.66;;;25.95;31.87
9335;BME280;4706;41.844;26.082;2022-09-20T07:33:12;100776.91;;;26.22;31.34
9335;BME280;4706;41.844;26.082;2022-09-20T07:35:44;100770.44;;;26.43;31.24
9335;BME280;4706;41.844;26.082;2022-09-20T07:38:11;100770.84;;;26.41;31.41
9335;BME280;4706;41.844;26.082;2022-09-20T07:40:37;100767.63;;;26.32;30.95
9335;BME280;4706;41.844;26.082;2022-09-20T07:43:02;100764.81;;;26.10;31.29
9335;BME280;4706;41.844;26.082;2022-09-20T07:45:28;100756.75;;;25.95;31.39
9335;BME280;4706;41.844;26.082;2022-09-20T07:47:58;100758.69;;;25.76;31.07
9335;BME280;4706;41.844;26.082;2022-09-20T07:50:24;100754.31;;;25.82;31.64
9335;BME280;4706;41.844;26.082;2022-09-20T07:52:49;100755.50;;;25.78;31.86
9335;BME280;4706;41.844;26.082;2022-09-20T07:55:15;100764.78;;;25.78;31.90
9335;BME280;4706;41.844;26.082;2022-09-20T07:57:41;100755.53;;;25.88;31.65
9335;BME280;4706;41.844;26.082;2022-09-20T08:00:08;100765.63;;;26.07;30.76
9335;BME280;4706;41.844;26.082;2022-09-20T08:02:34;100766.81;;;25.96;31.00
9335;BME280;4706;41.844;26.082;2022-09-20T08:05:00;100779.25;;;25.77;31.42
9335;BME280;4706;41.844;26.082;2022-09-20T08:07:25;100775.25;;;25.81;31.75
9335;BME280;4706;41.844;26.082;2022-09-20T08:09:51;100768.81;;;26.06;31.62
9335;BME280;4706;41.844;26.082;2022-09-20T08:12:16;100772.06;;;26.33;30.85
9335;BME280;4706;41.844;26.082;2022-09-20T08:14:44;100756.75;;;26.30;31.08
9335;BME280;4706;41.844;26.082;2022-09-20T08:17:10;100770.44;;;26.53;30.41
9335;BME280;4706;41.844;26.082;2022-09-20T08:19:36;100759.13;;;26.78;30.59
9335;BME280;4706;41.844;26.082;2022-09-20T08:22:04;100766.22;;;27.22;30.00
9335;BME280;4706;41.844;26.082;2022-09-20T08:24:31;100766.97;;;27.33;29.66
9335;BME280;4706;41.844;26.082;2022-09-20T08:26:57;100754.56;;;27.17;29.72
9335;BME280;4706;41.844;26.082;2022-09-20T08:29:23;100764.25;;;27.16;29.90
9335;BME280;4706;41.844;26.082;2022-09-20T08:31:49;100760.59;;;27.22;29.63
9335;BME280;4706;41.844;26.082;2022-09-20T08:34:17;100754.38;;;27.49;29.18
9335;BME280;4706;41.844;26.082;2022-09-20T08:36:44;100753.53;;;27.59;28.59
9335;BME280;4706;41.844;26.082;2022-09-20T08:39:16;100757.09;;;27.70;28.69
9335;BME280;4706;41.844;26.082;2022-09-20T08:44:55;100748.63;;;27.67;28.77
9335;BME280;4706;41.844;26.082;2022-09-20T08:47:31;100755.88;;;27.71;28.24
9335;BME280;4706;41.844;26.082;2022-09-20T08:50:02;100751.03;;;27.75;27.76
9335;BME280;4706;41.844;26.082;2022-09-20T08:52:31;100746.09;;;27.87;27.76
9335;BME280;4706;41.844;26.082;2022-09-20T08:54:58;100746.22;;;27.69;28.22
9335;BME280;4706;41.844;26.082;2022-09-20T08:57:30;100737.75;;;27.65;28.18
9335;BME280;4706;41.844;26.082;2022-09-20T09:00:02;100736.56;;;27.59;28.20
9335;BME280;4706;41.844;26.082;2022-09-20T09:02:30;100745.75;;;27.81;27.46
9335;BME280;4706;41.844;26.082;2022-09-20T09:04:56;100735.88;;;28.03;27.48
9335;BME280;4706;41.844;26.082;2022-09-20T09:07:24;100750.41;;;28.50;26.94
9335;BME280;4706;41.844;26.082;2022-09-20T09:09:51;100736.38;;;28.77;26.42
9335;BME280;4706;41.844;26.082;2022-09-20T09:12:24;100730.28;;;28.79;25.91
9335;BME280;4706;41.844;26.082;2022-09-20T09:14:52;100728.38;;;28.69;25.67
9335;BME280;4706;41.844;26.082;2022-09-20T09:17:29;100731.91;;;28.80;26.22
9335;BME280;4706;41.844;26.082;2022-09-20T09:20:07;100723.44;;;28.39;26.60
9335;BME280;4706;41.844;26.082;2022-09-20T09:22:41;100715.22;;;28.55;26.74
9335;BME280;4706;41.844;26.082;2022-09-20T09:28:00;100724.25;;;28.77;25.43
9335;BME280;4706;41.844;26.082;2022-09-20T09:38:24;100699.91;;;29.17;24.48
9335;BME280;4706;41.844;26.082;2022-09-20T09:40:53;100711.00;;;29.35;23.99
9335;BME280;4706;41.844;26.082;2022-09-20T09:43:25;100711.59;;;29.50;23.45
9335;BME280;4706;41.844;26.082;2022-09-20T09:45:56;100705.41;;;29.55;23.70
9335;BME280;4706;41.844;26.082;2022-09-20T09:48:41;100710.25;;;29.31;22.90
9335;BME280;4706;41.844;26.082;2022-09-20T09:51:08;100717.66;;;29.21;23.13
9335;BME280;4706;41.844;26.082;2022-09-20T09:53:34;100715.22;;;28.89;23.45
9335;BME280;4706;41.844;26.082;2022-09-20T09:56:06;100718.81;;;28.93;23.20
9335;BME280;4706;41.844;26.082;2022-09-20T09:58:42;100707.59;;;29.17;22.55
9335;BME280;4706;41.844;26.082;2022-09-20T10:17:28;100702.03;;;30.38;21.66
9335;BME280;4706;41.844;26.082;2022-09-20T10:22:53;100704.69;;;29.78;21.42
9335;BME280;4706;41.844;26.082;2022-09-20T10:25:50;100699.47;;;30.00;21.70
9335;BME280;4706;41.844;26.082;2022-09-20T10:28:31;100688.50;;;30.26;21.72
9335;BME280;4706;41.844;26.082;2022-09-20T10:31:03;100687.06;;;30.57;20.81
9335;BME280;4706;41.844;26.082;2022-09-20T10:34:05;100678.47;;;30.61;21.16
9335;BME280;4706;41.844;26.082;2022-09-20T10:39:09;100665.88;;;31.02;20.77
9335;BME280;4706;41.844;26.082;2022-09-20T10:41:49;100674.09;;;31.16;20.59
9335;BME280;4706;41.844;26.082;2022-09-20T10:47:17;100674.28;;;30.89;20.58
9335;BME280;4706;41.844;26.082;2022-09-20T10:49:52;100663.94;;;30.59;21.31
9335;BME280;4706;41.844;26.082;2022-09-20T10:52:43;100657.09;;;30.56;21.11
9335;BME280;4706;41.844;26.082;2022-09-20T10:55:37;100653.50;;;30.72;21.48
9335;BME280;4706;41.844;26.082;2022-09-20T11:09:54;100639.84;;;30.87;19.48
9335;BME280;4706;41.844;26.082;2022-09-20T11:12:36;100629.50;;;30.96;19.43
9335;BME280;4706;41.844;26.082;2022-09-20T11:17:50;100626.56;;;31.00;19.57
9335;BME280;4706;41.844;26.082;2022-09-20T11:20:24;100621.59;;;31.04;20.76
9335;BME280;4706;41.844;26.082;2022-09-20T11:22:57;100614.59;;;31.25;19.81
9335;BME280;4706;41.844;26.082;2022-09-20T11:26:30;100615.16;;;31.20;19.09
9335;BME280;4706;41.844;26.082;2022-09-20T11:28:53;100612.59;;;30.89;20.19
9335;BME280;4706;41.844;26.082;2022-09-20T11:31:31;100612.00;;;30.98;19.99
9335;BME280;4706;41.844;26.082;2022-09-20T11:36:47;100615.47;;;31.42;19.40
9335;BME280;4706;41.844;26.082;2022-09-20T11:42:10;100613.88;;;31.57;19.57
9335;BME280;4706;41.844;26.082;2022-09-20T11:44:40;100609.06;;;31.54;19.21
9335;BME280;4706;41.844;26.082;2022-09-20T11:47:13;100604.50;;;31.24;19.24
9335;BME280;4706;41.844;26.082;2022-09-20T11:58:15;100585.78;;;31.59;18.88
9335;BME280;4706;41.844;26.082;2022-09-20T12:00:45;100581.06;;;31.69;18.51
9335;BME280;4706;41.844;26.082;2022-09-20T12:03:29;100591.19;;;31.86;18.35
9335;BME280;4706;41.844;26.082;2022-09-20T12:06:01;100592.84;;;32.00;17.99
9335;BME280;4706;41.844;26.082;2022-09-20T12:08:31;100589.25;;;31.51;17.73
9335;BME280;4706;41.844;26.082;2022-09-20T12:11:07;100582.84;;;31.47;18.21
9335;BME280;4706;41.844;26.082;2022-09-20T12:13:37;100577.00;;;31.54;17.95
9335;BME280;4706;41.844;26.082;2022-09-20T12:21:22;100572.38;;;31.60;17.40
9335;BME280;4706;41.844;26.082;2022-09-20T12:28:59;100579.38;;;31.55;17.59
9335;BME280;4706;41.844;26.082;2022-09-20T12:39:35;100569.25;;;31.54;17.04
9335;BME280;4706;41.844;26.082;2022-09-20T12:42:05;100559.03;;;31.40;16.87
9335;BME280;4706;41.844;26.082;2022-09-20T13:03:48;100572.84;;;30.89;18.64
9335;BME280;4706;41.844;26.082;2022-09-20T13:09:03;100561.50;;;30.69;18.36
9335;BME280;4706;41.844;26.082;2022-09-20T13:11:48;100553.22;;;30.59;18.70
9335;BME280;4706;41.844;26.082;2022-09-20T13:14:28;100567.66;;;30.48;18.70
9335;BME280;4706;41.844;26.082;2022-09-20T13:17:03;100564.66;;;30.35;18.85
9335;BME280;4706;41.844;26.082;2022-09-20T13:19:45;100561.00;;;30.15;18.07
9335;BME280;4706;41.844;26.082;2022-09-20T13:22:27;100554.94;;;29.93;18.55
9335;BME280;4706;41.844;26.082;2022-09-20T13:24:58;100551.72;;;29.71;19.15
9335;BME280;4706;41.844;26.082;2022-09-20T13:27:33;100558.41;;;29.61;19.37
9335;BME280;4706;41.844;26.082;2022-09-20T13:32:42;100560.16;;;29.00;19.71
9335;BME280;4706;41.844;26.082;2022-09-20T13:37:59;100556.03;;;28.78;20.59
9335;BME280;4706;41.844;26.082;2022-09-20T13:40:45;100557.22;;;28.77;20.65
9335;BME280;4706;41.844;26.082;2022-09-20T13:46:10;100552.84;;;28.72;20.82
9335;BME280;4706;41.844;26.082;2022-09-20T13:48:36;100549.28;;;28.68;20.72
9335;BME280;4706;41.844;26.082;2022-09-20T13:51:02;100560.28;;;28.63;20.17
9335;BME280;4706;41.844;26.082;2022-09-20T13:53:29;100553.63;;;28.46;20.30
9335;BME280;4706;41.844;26.082;2022-09-20T13:55:57;100560.16;;;28.39;20.29
9335;BME280;4706;41.844;26.082;2022-09-20T13:58:27;100555.00;;;28.30;20.09
9335;BME280;4706;41.844;26.082;2022-09-20T14:01:04;100561.53;;;28.24;20.44
9335;BME280;4706;41.844;26.082;2022-09-20T14:03:34;100565.16;;;28.24;20.44
9335;BME280;4706;41.844;26.082;2022-09-20T14:06:10;100563.72;;;28.09;20.68
9335;BME280;4706;41.844;26.082;2022-09-20T14:08:42;100560.97;;;28.02;20.43
9335;BME280;4706;41.844;26.082;2022-09-20T14:11:18;100569.97;;;27.93;20.48
9335;BME280;4706;41.844;26.082;2022-09-20T14:13:51;100566.06;;;27.80;20.24
9335;BME280;4706;41.844;26.082;2022-09-20T14:16:20;100566.91;;;27.73;20.89
9335;BME280;4706;41.844;26.082;2022-09-20T14:18:48;100570.56;;;27.70;21.35
9335;BME280;4706;41.844;26.082;2022-09-20T14:21:20;100566.13;;;27.76;21.26
9335;BME280;4706;41.844;26.082;2022-09-20T14:23:52;100563.28;;;27.76;21.14
9335;BME280;4706;41.844;26.082;2022-09-20T14:28:44;100561.66;;;27.75;21.40
9335;BME280;4706;41.844;26.082;2022-09-20T14:31:30;100551.31;;;27.58;22.11
9335;BME280;4706;41.844;26.082;2022-09-20T14:34:01;100556.91;;;27.65;21.74
9335;BME280;4706;41.844;26.082;2022-09-20T14:36:28;100564.19;;;27.63;21.44
9335;BME280;4706;41.844;26.082;2022-09-20T14:39:02;100568.66;;;27.56;21.89
9335;BME280;4706;41.844;26.082;2022-09-20T14:41:38;100557.44;;;27.49;20.81
9335;BME280;4706;41.844;26.082;2022-09-20T14:44:23;100561.19;;;27.39;21.58
9335;BME280;4706;41.844;26.082;2022-09-20T14:46:50;100561.53;;;27.41;21.19
9335;BME280;4706;41.844;26.082;2022-09-20T14:55:19;100573.06;;;27.09;22.25
9335;BME280;4706;41.844;26.082;2022-09-20T14:57:46;100562.97;;;27.11;22.82
9335;BME280;4706;41.844;26.082;2022-09-20T15:00:14;100571.06;;;27.06;22.49
9335;BME280;4706;41.844;26.082;2022-09-20T15:02:41;100573.13;;;27.02;22.47
9335;BME280;4706;41.844;26.082;2022-09-20T15:05:25;100568.28;;;26.99;22.58
9335;BME280;4706;41.844;26.082;2022-09-20T15:07:55;100572.44;;;26.83;22.37
9335;BME280;4706;41.844;26.082;2022-09-20T15:10:23;100572.88;;;26.78;23.07
9335;BME280;4706;41.844;26.082;2022-09-20T15:12:49;100578.94;;;26.73;23.15
9335;BME280;4706;41.844;26.082;2022-09-20T15:15:16;100572.94;;;26.68;23.05
9335;BME280;4706;41.844;26.082;2022-09-20T15:17:44;100569.72;;;26.58;23.66
9335;BME280;4706;41.844;26.082;2022-09-20T15:20:18;100577.03;;;26.52;23.66
9335;BME280;4706;41.844;26.082;2022-09-20T15:22:46;100579.06;;;26.52;23.62
9335;BME280;4706;41.844;26.082;2022-09-20T15:25:18;100574.22;;;26.52;24.20
9335;BME280;4706;41.844;26.082;2022-09-20T15:27:46;100574.59;;;26.54;23.91
9335;BME280;4706;41.844;26.082;2022-09-20T15:30:15;100572.59;;;26.51;23.76
9335;BME280;4706;41.844;26.082;2022-09-20T15:32:43;100580.66;;;26.53;24.23
9335;BME280;4706;41.844;26.082;2022-09-20T15:35:09;100572.63;;;26.44;23.75
9335;BME280;4706;41.844;26.082;2022-09-20T15:37:35;100572.19;;;26.42;24.19
9335;BME280;4706;41.844;26.082;2022-09-20T15:40:01;100581.53;;;26.25;24.57
9335;BME280;4706;41.844;26.082;2022-09-20T15:42:27;100573.53;;;26.09;25.19
9335;BME280;4706;41.844;26.082;2022-09-20T15:44:52;100570.72;;;26.02;25.15
9335;BME280;4706;41.844;26.082;2022-09-20T15:47:18;100582.00;;;25.95;25.13
9335;BME280;4706;41.844;26.082;2022-09-20T15:49:49;100579.25;;;25.80;25.46
9335;BME280;4706;41.844;26.082;2022-09-20T15:52:15;100590.50;;;25.59;25.30
9335;BME280;4706;41.844;26.082;2022-09-20T15:54:41;100590.50;;;25.48;25.72
9335;BME280;4706;41.844;26.082;2022-09-20T15:57:07;100588.06;;;25.25;26.11
9335;BME280;4706;41.844;26.082;2022-09-20T15:59:33;100586.06;;;25.26;26.26
9335;BME280;4706;41.844;26.082;2022-09-20T16:01:59;100592.91;;;25.35;25.99
9335;BME280;4706;41.844;26.082;2022-09-20T16:04:25;100592.09;;;25.38;25.93
9335;BME280;4706;41.844;26.082;2022-09-20T16:06:53;100598.13;;;25.37;25.96
9335;BME280;4706;41.844;26.082;2022-09-20T16:09:19;100595.72;;;25.39;26.11
9335;BME280;4706;41.844;26.082;2022-09-20T16:11:45;100602.56;;;25.41;25.95
9335;BME280;4706;41.844;26.082;2022-09-20T16:14:12;100610.19;;;25.37;25.63
9335;BME280;4706;41.844;26.082;2022-09-20T16:16:37;100617.41;;;25.35;26.07
9335;BME280;4706;41.844;26.082;2022-09-20T16:19:03;100602.53;;;25.27;25.97
9335;BME280;4706;41.844;26.082;2022-09-20T16:21:53;100625.47;;;25.29;25.67
9335;BME280;4706;41.844;26.082;2022-09-20T16:24:24;100624.66;;;25.22;25.88
9335;BME280;4706;41.844;26.082;2022-09-20T16:26:51;100629.81;;;25.05;26.63
9335;BME280;4706;41.844;26.082;2022-09-20T16:29:16;100633.41;;;24.91;26.58
9335;BME280;4706;41.844;26.082;2022-09-20T16:31:45;100645.47;;;24.95;26.53
9335;BME280;4706;41.844;26.082;2022-09-20T16:34:21;100641.00;;;24.84;27.05
9335;BME280;4706;41.844;26.082;2022-09-20T16:36:51;100638.16;;;24.73;26.70
9335;BME280;4706;41.844;26.082;2022-09-20T16:39:19;100655.03;;;24.73;26.91
9335;BME280;4706;41.844;26.082;2022-09-20T16:41:46;100655.38;;;24.57;27.03
9335;BME280;4706;41.844;26.082;2022-09-20T16:44:13;100658.94;;;24.51;27.25
9335;BME280;4706;41.844;26.082;2022-09-20T16:46:39;100647.28;;;24.52;27.28
9335;BME280;4706;41.844;26.082;2022-09-20T16:49:07;100664.63;;;24.61;27.27
9335;BME280;4706;41.844;26.082;2022-09-20T16:51:35;100663.03;;;24.71;26.81
9335;BME280;4706;41.844;26.082;2022-09-20T16:54:14;100669.44;;;24.61;26.80
9335;BME280;4706;41.844;26.082;2022-09-20T16:56:42;100672.69;;;24.66;26.88
9335;BME280;4706;41.844;26.082;2022-09-20T16:59:09;100667.50;;;24.76;26.68
9335;BME280;4706;41.844;26.082;2022-09-20T17:01:36;100674.66;;;24.62;26.70
9335;BME280;4706;41.844;26.082;2022-09-20T17:04:03;100675.44;;;24.59;26.81
9335;BME280;4706;41.844;26.082;2022-09-20T17:06:34;100671.84;;;24.59;27.15
9335;BME280;4706;41.844;26.082;2022-09-20T17:09:00;100683.06;;;24.55;27.34
9335;BME280;4706;41.844;26.082;2022-09-20T17:11:28;100691.44;;;24.44;27.22
9335;BME280;4706;41.844;26.082;2022-09-20T17:13:55;100699.00;;;24.37;27.44
9335;BME280;4706;41.844;26.082;2022-09-20T17:16:24;100699.81;;;24.37;27.40
9335;BME280;4706;41.844;26.082;2022-09-20T17:18:52;100695.72;;;24.28;27.41
9335;BME280;4706;41.844;26.082;2022-09-20T17:21:21;100699.63;;;24.09;27.58
9335;BME280;4706;41.844;26.082;2022-09-20T17:23:49;100701.63;;;24.08;28.00
9335;BME280;4706;41.844;26.082;2022-09-20T17:26:26;100710.44;;;24.07;27.92
9335;BME280;4706;41.844;26.082;2022-09-20T17:28:54;100712.13;;;24.15;27.90
9335;BME280;4706;41.844;26.082;2022-09-20T17:31:25;100711.53;;;23.95;27.88
9335;BME280;4706;41.844;26.082;2022-09-20T17:33:54;100726.81;;;23.97;27.96
9335;BME280;4706;41.844;26.082;2022-09-20T17:36:25;100720.66;;;23.81;28.70
9335;BME280;4706;41.844;26.082;2022-09-20T17:38:53;100723.53;;;23.88;28.38
9335;BME280;4706;41.844;26.082;2022-09-20T17:41:19;100731.22;;;23.95;28.48
9335;BME280;4706;41.844;26.082;2022-09-20T17:43:46;100731.94;;;23.85;28.67
9335;BME280;4706;41.844;26.082;2022-09-20T17:48:40;100730.19;;;23.32;29.13
9335;BME280;4706;41.844;26.082;2022-09-20T17:51:06;100744.66;;;23.04;29.52
9335;BME280;4706;41.844;26.082;2022-09-20T17:53:34;100753.03;;;23.00;29.46
9335;BME280;4706;41.844;26.082;2022-09-20T17:56:02;100754.63;;;23.01;29.76
9335;BME280;4706;41.844;26.082;2022-09-20T17:58:28;100767.09;;;23.04;29.59
9335;BME280;4706;41.844;26.082;2022-09-20T18:01:00;100768.25;;;22.99;29.99
9335;BME280;4706;41.844;26.082;2022-09-20T18:03:26;100767.53;;;23.06;29.98
9335;BME280;4706;41.844;26.082;2022-09-20T18:05:51;100757.44;;;23.01;29.88
9335;BME280;4706;41.844;26.082;2022-09-20T18:08:17;100761.88;;;23.02;28.87
9335;BME280;4706;41.844;26.082;2022-09-20T18:10:53;100769.25;;;23.14;29.41
9335;BME280;4706;41.844;26.082;2022-09-20T18:13:20;100770.56;;;23.24;29.17
9335;BME280;4706;41.844;26.082;2022-09-20T18:15:45;100770.22;;;23.29;29.52
9335;BME280;4706;41.844;26.082;2022-09-20T18:18:12;100779.88;;;23.32;29.18
9335;BME280;4706;41.844;26.082;2022-09-20T18:20:37;100760.47;;;23.19;29.29
9335;BME280;4706;41.844;26.082;2022-09-20T18:23:03;100789.88;;;23.29;29.16
9335;BME280;4706;41.844;26.082;2022-09-20T18:25:29;100768.56;;;23.24;29.27
9335;BME280;4706;41.844;26.082;2022-09-20T18:28:15;100782.31;;;23.33;29.39
9335;BME280;4706;41.844;26.082;2022-09-20T18:30:42;100786.69;;;23.31;29.19
9335;BME280;4706;41.844;26.082;2022-09-20T18:33:10;100785.06;;;23.30;29.29
9335;BME280;4706;41.844;26.082;2022-09-20T18:35:36;100791.03;;;23.24;29.13
9335;BME280;4706;41.844;26.082;2022-09-20T18:38:09;100796.09;;;23.15;29.59
9335;BME280;4706;41.844;26.082;2022-09-20T18:40:36;100785.59;;;22.82;29.99
9335;BME280;4706;41.844;26.082;2022-09-20T18:43:03;100797.50;;;22.98;29.95
9335;BME280;4706;41.844;26.082;2022-09-20T18:45:29;100797.22;;;23.07;29.83
9335;BME280;4706;41.844;26.082;2022-09-20T18:47:54;100789.25;;;23.13;29.59
9335;BME280;4706;41.844;26.082;2022-09-20T18:50:22;100781.94;;;23.05;29.60
9335;BME280;4706;41.844;26.082;2022-09-20T18:52:52;100794.44;;;23.11;29.62
9335;BME280;4706;41.844;26.082;2022-09-20T18:55:17;100794.06;;;23.12;29.68